Time;durP1;ratioP1;P1;durP2;ratioP2;P2;SDS_P1;SDS_P2;PMS_P1;PMS_P2;Temp;Humidity;BMP_temperature;BMP_pressure;BME280_temperature;BME280_humidity;BME280_pressure;Samples;Min_cycle;Max_cycle;Signal;HPM_P1;HPM_P2
2021/11/24 00:00:32;;;;;;;76.60;27.83;;;5.90;99.90;;;6.45;100.00;101712.03;5054822;28;20036;-77
2021/11/24 00:03:01;;;;;;;77.80;27.98;;;5.90;99.90;;;6.50;100.00;101713.88;5054366;28;20029;-76
2021/11/24 00:05:27;;;;;;;81.20;29.67;;;5.90;99.90;;;6.67;100.00;101709.41;5053081;28;20029;-77
2021/11/24 00:07:55;;;;;;;79.50;28.35;;;5.90;99.90;;;6.63;100.00;101713.06;5054689;28;20028;-78
2021/11/24 00:10:29;;;;;;;76.38;27.08;;;5.90;99.90;;;6.60;100.00;101705.34;5054770;28;20048;-75
2021/11/24 00:12:58;;;;;;;70.47;25.77;;;5.90;99.90;;;6.58;100.00;101705.66;5054562;28;20098;-77
2021/11/24 00:15:24;;;;;;;76.13;26.80;;;5.90;99.90;;;6.59;100.00;101704.53;5054389;28;20025;-78
2021/11/24 00:17:51;;;;;;;71.35;26.23;;;5.90;99.90;;;6.59;100.00;101703.69;5069971;28;20035;-78
2021/11/24 00:20:20;;;;;;;73.55;25.40;;;5.90;99.90;;;6.57;100.00;101700.41;5054684;28;20063;-77
2021/11/24 00:22:49;;;;;;;90.10;28.58;;;5.90;99.90;;;6.53;100.00;101707.72;5069725;28;20017;-77
2021/11/24 00:25:15;;;;;;;80.30;26.90;;;5.90;99.90;;;6.56;100.00;101707.09;5053617;28;20487;-78
2021/11/24 00:27:44;;;;;;;82.28;26.77;;;5.90;99.90;;;6.54;100.00;101695.47;5069761;28;20028;-77
2021/11/24 00:30:10;;;;;;;70.28;26.15;;;5.90;99.90;;;6.55;100.00;101697.94;5053286;28;20082;-77
2021/11/24 00:32:36;;;;;;;82.05;28.80;;;5.90;99.90;;;6.56;100.00;101696.00;5070104;28;20143;-79
2021/11/24 00:35:06;;;;;;;75.97;26.33;;;5.90;99.90;;;6.57;100.00;101692.09;5054636;28;20112;-77
2021/11/24 00:37:32;;;;;;;93.30;29.85;;;5.90;99.90;;;6.56;100.00;101691.25;5054407;28;20036;-77
2021/11/24 00:39:58;;;;;;;87.65;26.65;;;5.90;99.90;;;6.57;100.00;101686.53;5054876;28;20385;-77
2021/11/24 00:42:24;;;;;;;82.82;25.17;;;5.90;99.90;;;6.56;100.00;101694.03;5054863;28;20036;-78
2021/11/24 00:44:50;;;;;;;82.90;27.58;;;5.90;99.90;;;6.56;100.00;101685.72;5053948;28;20032;-77
2021/11/24 00:47:16;;;;;;;94.72;27.30;;;5.90;99.90;;;6.56;100.00;101690.44;5054727;28;20033;-78
2021/11/24 00:49:42;;;;;;;107.47;31.08;;;5.90;99.90;;;6.56;100.00;101682.94;5054959;28;20434;-78
2021/11/24 00:52:10;;;;;;;83.80;26.40;;;5.90;99.90;;;6.57;100.00;101689.31;5054611;28;20116;-78
2021/11/24 00:54:37;;;;;;;91.63;28.80;;;5.90;99.90;;;6.56;100.00;101682.94;5054135;28;20434;-77
2021/11/24 00:57:04;;;;;;;92.57;30.23;;;5.90;99.90;;;6.56;100.00;101691.25;5069654;28;20036;-77
2021/11/24 00:59:36;;;;;;;95.35;27.95;;;5.90;99.90;;;6.58;100.00;101682.66;5055355;28;20025;-80
2021/11/24 01:02:02;;;;;;;89.82;27.75;;;5.90;99.90;;;6.57;100.00;101681.00;5054455;28;20063;-80
2021/11/24 01:04:28;;;;;;;86.55;29.63;;;5.90;99.90;;;6.58;100.00;101677.09;5054563;28;20025;-79
2021/11/24 01:06:54;;;;;;;101.82;30.38;;;5.90;99.90;;;6.55;100.00;101681.28;5054583;28;20025;-79
2021/11/24 01:09:20;;;;;;;114.88;30.58;;;5.90;99.90;;;6.55;100.00;101672.97;5053896;28;20496;-79
2021/11/24 01:11:47;;;;;;;109.55;32.55;;;5.90;99.90;;;6.55;100.00;101672.16;5054744;28;20082;-77
2021/11/24 01:14:13;;;;;;;98.60;29.92;;;5.90;99.90;;;6.55;100.00;101675.72;5054900;28;20032;-79
2021/11/24 01:16:39;;;;;;;99.82;28.75;;;5.90;99.90;;;6.56;100.00;101677.38;5054497;28;20044;-78
2021/11/24 01:19:08;;;;;;;110.10;29.10;;;6.00;99.90;;;6.58;100.00;101674.31;5055576;28;20021;-77
2021/11/24 01:21:33;;;;;;;90.40;27.98;;;5.90;99.90;;;6.57;100.00;101673.50;5057661;28;20029;-75
2021/11/24 01:23:59;;;;;;;99.15;29.98;;;5.90;99.90;;;6.58;100.00;101675.13;5059012;28;20131;-77
2021/11/24 01:26:25;;;;;;;114.30;30.73;;;5.90;99.90;;;6.57;100.00;101673.50;5067528;28;20032;-77
2021/11/24 01:28:51;;;;;;;93.80;28.52;;;5.90;99.90;;;6.59;100.00;101674.00;5066807;28;20466;-76
2021/11/24 01:31:19;;;;;;;102.10;31.08;;;5.90;99.90;;;6.59;100.00;101675.94;5053002;28;20095;-78
2021/11/24 01:33:50;;;;;;;106.63;30.30;;;5.90;99.90;;;6.61;100.00;101676.47;5052915;28;20477;-77
2021/11/24 01:36:16;;;;;;;100.40;30.20;;;5.90;99.90;;;6.60;100.00;101675.66;5053245;28;20139;-76
2021/11/24 01:38:42;;;;;;;122.68;33.47;;;5.90;99.90;;;6.61;100.00;101668.16;5052631;28;20032;-77
2021/11/24 01:41:08;;;;;;;97.28;29.00;;;6.00;99.90;;;6.61;100.00;101677.31;5053130;28;20040;-75
2021/11/24 01:43:34;;;;;;;100.95;27.95;;;6.00;99.90;;;6.62;100.00;101669.78;5050810;28;20033;-76
2021/11/24 01:46:09;;;;;;;112.35;31.60;;;5.90;99.90;;;6.62;100.00;101662.28;5068006;28;20033;-78
2021/11/24 01:48:41;;;;;;;103.68;32.80;;;5.90;99.90;;;6.61;100.00;101655.09;5052709;28;20040;-78
2021/11/24 01:51:07;;;;;;;108.95;28.92;;;6.00;99.90;;;6.61;100.00;101659.81;5051498;28;20071;-79
2021/11/24 01:53:33;;;;;;;119.78;33.42;;;5.90;99.90;;;6.62;100.00;101655.91;5052530;28;20057;-77
2021/11/24 01:56:01;;;;;;;97.28;28.27;;;5.90;99.90;;;6.61;100.00;101657.88;5075359;23;20113;-84
2021/11/24 01:58:33;;;;;;;100.78;30.45;;;6.00;99.90;;;6.61;100.00;101655.09;5056912;28;20017;-83
2021/11/24 02:01:05;;;;;;;114.25;30.65;;;6.00;99.90;;;6.62;100.00;101656.72;5056745;28;20025;-83
2021/11/24 02:03:32;;;;;;;112.65;29.45;;;6.00;99.90;;;6.62;100.00;101653.94;5055725;28;20032;-81
2021/11/24 02:05:58;;;;;;;111.68;31.45;;;6.00;99.90;;;6.63;100.00;101646.44;5035893;28;20094;-82
2021/11/24 02:08:24;;;;;;;125.13;30.40;;;6.00;99.90;;;6.61;100.00;101640.41;5036430;28;20045;-79
2021/11/24 02:10:51;;;;;;;129.15;33.22;;;6.00;99.90;;;6.60;100.00;101647.06;5038607;28;20258;-84
2021/11/24 02:13:17;;;;;;;138.32;34.97;;;5.90;99.90;;;6.58;100.00;101632.69;5048919;28;20041;-81
2021/11/24 02:15:43;;;;;;;131.48;34.20;;;5.90;99.90;;;6.59;100.00;101640.69;5035581;28;20047;-80
2021/11/24 02:18:09;;;;;;;112.43;30.33;;;6.00;99.90;;;6.62;100.00;101628.97;5034569;28;20040;-84
2021/11/24 02:20:45;;;;;;;115.43;32.63;;;6.00;99.90;;;6.62;100.00;101628.13;5039687;28;20052;-79
2021/11/24 02:23:14;;;;;;;116.80;30.52;;;6.00;99.90;;;6.63;100.00;101622.28;5022383;28;20025;-82
2021/11/24 02:25:43;;;;;;;112.22;34.25;;;6.00;99.90;;;6.62;100.00;101622.59;5041024;28;20045;-80
2021/11/24 02:28:17;;;;;;;111.40;30.88;;;6.00;99.90;;;6.63;100.00;101627.84;5021996;28;20044;-83
2021/11/24 02:30:44;;;;;;;112.10;29.80;;;6.00;99.90;;;6.63;100.00;101616.75;5021926;28;20041;-80
2021/11/24 02:33:10;;;;;;;121.50;32.88;;;5.90;99.90;;;6.63;100.00;101616.75;5038825;28;20036;-80
2021/11/24 02:35:36;;;;;;;129.55;35.00;;;6.00;99.90;;;6.64;100.00;101614.78;5021295;28;20021;-82
2021/11/24 02:38:06;;;;;;;108.10;29.55;;;6.00;99.90;;;6.64;100.00;101612.03;5021275;28;20037;-81
2021/11/24 02:40:34;;;;;;;138.20;35.17;;;6.00;99.90;;;6.63;100.00;101607.59;5036599;28;20496;-84
2021/11/24 02:43:05;;;;;;;114.90;30.35;;;6.00;99.90;;;6.64;100.00;101612.84;5021044;28;20029;-82
2021/11/24 02:45:38;;;;;;;118.53;32.05;;;6.00;99.90;;;6.64;100.00;101603.69;5037890;28;20037;-80
2021/11/24 02:48:05;;;;;;;118.03;32.70;;;6.00;99.90;;;6.64;100.00;101607.28;5039132;28;20026;-81
2021/11/24 02:50:32;;;;;;;122.60;31.08;;;6.00;99.90;;;6.65;100.00;101608.91;5038821;28;20026;-81
2021/11/24 02:53:00;;;;;;;114.72;31.02;;;6.00;99.90;;;6.65;100.00;101599.75;5020862;28;20032;-81
2021/11/24 02:55:26;;;;;;;115.88;33.40;;;6.00;99.90;;;6.65;100.00;101606.13;5039075;28;20428;-80
2021/11/24 02:57:56;;;;;;;115.10;30.50;;;6.00;99.90;;;6.64;100.00;101601.75;5021477;28;20070;-84
2021/11/24 03:00:32;;;;;;;116.40;31.92;;;6.00;99.90;;;6.64;100.00;101598.97;5021304;28;20025;-84
2021/11/24 03:02:58;;;;;;;106.78;29.17;;;6.00;99.90;;;6.64;100.00;101587.84;5038515;28;20400;-83
2021/11/24 03:05:34;;;;;;;113.47;30.83;;;6.00;99.90;;;6.63;100.00;101580.66;5021397;28;20105;-84
2021/11/24 03:08:00;;;;;;;113.65;31.55;;;6.00;99.90;;;6.64;100.00;101587.03;5021584;28;20488;-81
2021/11/24 03:10:28;;;;;;;123.88;34.28;;;6.00;99.90;;;6.63;100.00;101575.09;5021114;28;20033;-83
2021/11/24 03:12:58;;;;;;;114.55;30.90;;;6.00;99.90;;;6.64;100.00;101575.94;5020840;28;20025;-83
2021/11/24 03:15:28;;;;;;;130.43;35.22;;;6.00;99.90;;;6.64;100.00;101571.19;5037928;28;20025;-80
2021/11/24 03:18:01;;;;;;;99.03;27.23;;;6.00;99.90;;;6.64;100.00;101578.69;5037038;28;20119;-84
2021/11/24 03:20:28;;;;;;;111.47;30.85;;;6.00;99.90;;;6.65;100.00;101563.66;5036372;28;20025;-81
2021/11/24 03:23:04;;;;;;;102.50;28.38;;;6.00;99.90;;;6.65;100.00;101561.72;5019434;28;20551;-83
2021/11/24 03:25:39;;;;;;;134.63;32.72;;;6.00;99.90;;;6.67;100.00;101564.19;5019190;28;20084;-84
2021/11/24 03:28:05;;;;;;;124.77;32.67;;;6.00;99.90;;;6.66;100.00;101555.03;5019193;28;20052;-81
2021/11/24 03:30:35;;;;;;;108.22;29.73;;;6.00;99.90;;;6.66;100.00;101551.44;5018963;28;20030;-83
2021/11/24 03:33:06;;;;;;;107.75;29.92;;;6.00;99.90;;;6.66;100.00;101548.66;5036281;28;20021;-80
2021/11/24 03:35:36;;;;;;;108.03;29.60;;;6.00;99.90;;;6.67;100.00;101547.53;5020177;28;20507;-81
2021/11/24 03:38:03;;;;;;;116.53;29.95;;;6.00;99.90;;;6.65;100.00;101539.50;5020473;28;20089;-83
2021/11/24 03:40:33;;;;;;;109.38;29.10;;;6.00;99.90;;;6.65;100.00;101538.69;5021011;28;20188;-83
2021/11/24 03:43:00;;;;;;;124.70;32.05;;;6.00;99.90;;;6.62;100.00;101531.81;5039031;28;20025;-82
2021/11/24 03:45:33;;;;;;;119.45;31.13;;;6.00;99.90;;;6.65;100.00;101531.19;5021509;28;20029;-83
2021/11/24 03:48:02;;;;;;;121.20;31.90;;;6.00;99.90;;;6.66;100.00;101523.69;5021858;28;20036;-84
2021/11/24 03:50:28;;;;;;;133.95;32.10;;;6.00;99.90;;;6.66;100.00;101524.50;5021976;28;20066;-86
2021/11/24 03:52:55;;;;;;;114.78;31.75;;;6.00;99.90;;;6.67;100.00;101515.06;5039492;28;20026;-84
2021/11/24 03:55:22;;;;;;;130.88;33.20;;;6.00;99.90;;;6.67;100.00;101526.16;5036841;28;20029;-84
2021/11/24 03:57:48;;;;;;;142.95;35.15;;;6.00;99.90;;;6.68;100.00;101521.41;5040298;28;20025;-84
2021/11/24 04:00:27;;;;;;;148.68;36.35;;;6.00;99.90;;;6.70;100.00;101519.97;5023021;28;20030;-85
2021/11/24 04:02:53;;;;;;;118.47;30.27;;;6.00;99.90;;;6.71;100.00;101524.38;5041238;28;20032;-85
2021/11/24 04:05:21;;;;;;;114.53;30.98;;;6.10;99.90;;;6.70;100.00;101519.16;5024061;28;20049;-86
2021/11/24 04:07:50;;;;;;;140.52;35.25;;;6.00;99.90;;;6.73;100.00;101518.53;5041181;28;20021;-86
2021/11/24 04:10:16;;;;;;;131.13;32.03;;;6.00;99.90;;;6.71;100.00;101513.28;5041014;28;20021;-81
2021/11/24 04:12:43;;;;;;;119.25;33.90;;;6.00;99.90;;;6.69;100.00;101512.78;5036832;28;20104;-83
2021/11/24 04:15:18;;;;;;;108.65;30.15;;;6.00;99.90;;;6.68;100.00;101504.75;5037048;28;20025;-82
2021/11/24 04:17:46;;;;;;;117.00;29.65;;;6.10;99.90;;;6.69;100.00;101510.00;5019616;28;20482;-82
2021/11/24 04:20:19;;;;;;;116.22;31.02;;;6.00;99.90;;;6.68;100.00;101496.41;5037369;28;20029;-82
2021/11/24 04:22:46;;;;;;;115.30;30.92;;;6.00;99.90;;;6.70;100.00;101508.06;5019600;28;20033;-85
2021/11/24 04:25:14;;;;;;;111.80;29.70;;;6.00;99.90;;;6.71;100.00;101509.72;5020837;28;20084;-84
2021/11/24 04:27:41;;;;;;;119.53;32.00;;;6.00;99.90;;;6.72;100.00;101503.00;5038061;28;20451;-83
2021/11/24 04:30:09;;;;;;;120.55;33.17;;;6.00;99.90;;;6.73;100.00;101501.88;5036188;28;20499;-79
2021/11/24 04:32:35;;;;;;;116.57;31.00;;;6.00;99.90;;;6.71;100.00;101496.63;5018774;28;20037;-82
2021/11/24 04:35:01;;;;;;;132.90;33.97;;;6.00;99.90;;;6.72;100.00;101501.06;5018581;28;20025;-82
2021/11/24 04:37:39;;;;;;;118.60;32.17;;;6.10;99.90;;;6.72;100.00;101494.66;5036536;28;20393;-83
2021/11/24 04:40:07;;;;;;;124.43;34.83;;;6.10;99.90;;;6.73;100.00;101488.00;5036223;28;20017;-81
2021/11/24 04:42:33;;;;;;;160.48;37.72;;;6.00;99.90;;;6.71;100.00;101487.50;5017960;28;20025;-79
2021/11/24 04:45:03;;;;;;;122.03;33.33;;;6.00;99.90;;;6.71;100.00;101487.50;5018405;28;20460;-82
2021/11/24 04:47:29;;;;;;;130.18;32.97;;;6.00;99.90;;;6.71;100.00;101493.06;5017868;28;20037;-82
2021/11/24 04:49:54;;;;;;;135.32;34.72;;;6.00;99.90;;;6.72;100.00;101489.94;5037077;28;20525;-81
2021/11/24 04:52:23;;;;;;;140.90;35.72;;;6.00;99.90;;;6.73;100.00;101485.22;5021525;28;20124;-82
2021/11/24 04:54:49;;;;;;;132.43;34.15;;;6.00;99.90;;;6.74;100.00;101481.31;5019465;28;20040;-79
2021/11/24 04:57:16;;;;;;;132.65;34.33;;;6.00;99.90;;;6.74;100.00;101484.09;5018939;28;20029;-82
2021/11/24 04:59:43;;;;;;;136.45;35.97;;;6.10;99.90;;;6.74;100.00;101476.56;5018643;28;20025;-82
2021/11/24 05:02:09;;;;;;;150.18;39.65;;;6.10;99.90;;;6.75;100.00;101481.00;5019340;28;20025;-82
2021/11/24 05:04:35;;;;;;;146.05;37.47;;;6.00;99.90;;;6.73;100.00;101474.94;5018934;28;20032;-80
2021/11/24 05:07:01;;;;;;;181.80;43.28;;;6.00;99.90;;;6.76;100.00;101470.72;5036090;28;20039;-83
2021/11/24 05:09:27;;;;;;;149.07;37.13;;;6.00;99.90;;;6.72;100.00;101464.97;5017945;28;20442;-84
2021/11/24 05:11:53;;;;;;;143.35;36.92;;;6.00;99.90;;;6.73;100.00;101472.16;5036089;28;20112;-82
2021/11/24 05:14:25;;;;;;;133.52;34.17;;;6.00;99.90;;;6.73;100.00;101472.16;5018223;28;20048;-84
2021/11/24 05:16:55;;;;;;;129.73;33.65;;;6.00;99.90;;;6.74;100.00;101467.44;5017380;28;20111;-84
2021/11/24 05:19:32;;;;;;;126.70;33.78;;;6.10;99.90;;;6.73;100.00;101472.16;5035807;28;20021;-82
2021/11/24 05:21:59;;;;;;;131.75;35.13;;;6.10;99.90;;;6.74;100.00;101473.00;5017696;28;20021;-83
2021/11/24 05:24:26;;;;;;;131.32;35.08;;;6.10;99.90;;;6.75;100.00;101481.00;5016656;28;20441;-82
2021/11/24 05:26:52;;;;;;;173.20;40.08;;;6.00;99.90;;;6.75;100.00;101477.38;5034154;28;20030;-83
2021/11/24 05:29:18;;;;;;;144.02;37.22;;;6.10;99.90;;;6.72;100.00;101467.72;5017814;28;20068;-81
2021/11/24 05:31:44;;;;;;;142.73;36.45;;;6.10;99.90;;;6.75;100.00;101471.84;5017481;28;20029;-82
2021/11/24 05:34:10;;;;;;;138.20;36.25;;;6.10;99.90;;;6.75;100.00;101467.09;5017601;28;20037;-82
2021/11/24 05:36:39;;;;;;;140.90;38.00;;;6.10;99.90;;;6.74;100.00;101462.69;5018388;28;20026;-81
2021/11/24 05:39:10;;;;;;;140.27;38.95;;;6.10;99.90;;;6.77;100.00;101469.59;5018925;28;20044;-82
2021/11/24 05:41:40;;;;;;;134.07;38.75;;;6.10;99.90;;;6.76;100.00;101467.94;5018726;28;20026;-83
2021/11/24 05:44:25;;;;;;;130.80;36.33;;;6.10;99.90;;;6.74;100.00;101468.22;5018638;28;20053;-82
2021/11/24 05:47:01;;;;;;;137.63;36.83;;;6.10;99.90;;;6.77;100.00;101469.59;5040812;28;20040;-85
2021/11/24 05:49:30;;;;;;;132.93;37.55;;;6.00;99.90;;;6.74;100.00;101461.88;5036462;28;20035;-81
2021/11/24 05:51:58;;;;;;;117.93;33.40;;;6.00;99.90;;;6.69;100.00;101457.25;5029825;28;20037;-84
2021/11/24 05:54:33;;;;;;;126.57;35.58;;;6.10;99.90;;;6.72;100.00;101453.03;5023250;28;20038;-82
2021/11/24 05:56:58;;;;;;;132.60;35.75;;;6.10;99.90;;;6.72;100.00;101451.06;5028563;28;20064;-82
2021/11/24 05:59:24;;;;;;;162.27;40.33;;;6.10;99.90;;;6.72;100.00;101441.91;5045508;28;20025;-84
2021/11/24 06:01:50;;;;;;;145.27;37.92;;;6.00;99.90;;;6.72;100.00;101450.25;5040668;28;20044;-84
2021/11/24 06:04:19;;;;;;;128.25;35.42;;;6.10;99.90;;;6.71;100.00;101449.44;5022445;28;20022;-83
2021/11/24 06:06:45;;;;;;;138.25;34.20;;;6.10;99.90;;;6.73;100.00;101451.91;5039507;28;20056;-83
2021/11/24 06:09:11;;;;;;;153.32;42.03;;;6.10;99.90;;;6.73;100.00;101441.63;5022174;28;20022;-80
2021/11/24 06:11:38;;;;;;;145.40;41.25;;;6.00;99.90;;;6.72;100.00;101442.75;5040336;28;20029;-81
2021/11/24 06:14:04;;;;;;;138.65;38.90;;;6.10;99.90;;;6.73;100.00;101447.19;5021687;28;20029;-82
2021/11/24 06:16:30;;;;;;;146.68;38.42;;;6.10;99.90;;;6.75;100.00;101449.63;5021125;28;20029;-81
2021/11/24 06:18:55;;;;;;;148.40;39.55;;;6.10;99.90;;;6.76;100.00;101443.78;5022321;28;20034;-81
2021/11/24 06:21:24;;;;;;;127.05;39.15;;;6.10;99.90;;;6.75;100.00;101438.53;5022616;28;20040;-84
2021/11/24 06:23:51;;;;;;;120.97;35.42;;;6.10;99.90;;;6.78;100.00;101443.44;5021057;28;20053;-83
2021/11/24 06:26:20;;;;;;;119.38;33.67;;;6.10;99.90;;;6.78;100.00;101432.34;5039957;28;20025;-83
2021/11/24 06:28:48;;;;;;;120.93;32.70;;;6.10;99.90;;;6.77;100.00;101433.50;5021453;28;20026;-82
2021/11/24 06:31:14;;;;;;;119.90;33.35;;;6.10;99.90;;;6.78;100.00;101438.72;5026544;28;20037;-81
2021/11/24 06:33:43;;;;;;;122.07;31.33;;;6.10;99.90;;;6.77;100.00;101423.22;5031155;28;20033;-82
2021/11/24 06:36:15;;;;;;;129.07;37.03;;;6.10;99.90;;;6.74;100.00;101429.38;5031378;28;20037;-83
2021/11/24 06:38:54;;;;;;;188.35;49.38;;;6.10;99.90;;;6.76;100.00;101431.84;5021933;28;20384;-83
2021/11/24 06:41:23;;;;;;;211.52;61.75;;;6.10;99.90;;;6.76;100.00;101438.22;5023514;28;20102;-77
2021/11/24 06:43:49;;;;;;;174.95;47.65;;;6.10;99.90;;;6.73;100.00;101432.47;5021995;28;20111;-81
2021/11/24 06:46:18;;;;;;;140.02;41.22;;;6.10;99.90;;;6.75;100.00;101430.19;5021847;28;20033;-81
2021/11/24 06:48:53;;;;;;;161.05;40.25;;;6.10;99.90;;;6.75;100.00;101427.41;5023251;28;20033;-81
2021/11/24 06:51:19;;;;;;;144.93;38.50;;;6.10;99.90;;;6.75;100.00;101433.78;5022875;28;20113;-81
2021/11/24 06:53:45;;;;;;;136.88;34.90;;;6.10;99.90;;;6.75;100.00;101432.97;5040512;28;20311;-82
2021/11/24 06:56:14;;;;;;;149.05;39.72;;;6.10;99.90;;;6.76;100.00;101438.22;5021996;28;20041;-80
2021/11/24 06:58:40;;;;;;;166.77;44.40;;;6.10;99.90;;;6.76;100.00;101431.84;5023275;28;20088;-80
2021/11/24 07:01:09;;;;;;;141.82;38.90;;;6.10;99.90;;;6.75;100.00;101430.19;5025169;28;20033;-80
2021/11/24 07:03:35;;;;;;;150.43;41.70;;;6.10;99.90;;;6.75;100.00;101427.41;5042182;28;20037;-80
2021/11/24 07:06:02;;;;;;;147.18;42.67;;;6.10;99.90;;;6.73;100.00;101426.91;5027919;28;20025;-81
2021/11/24 07:08:28;;;;;;;140.70;39.47;;;6.10;99.90;;;6.75;100.00;101425.47;5042522;28;20029;-80
2021/11/24 07:11:00;;;;;;;165.52;43.25;;;6.10;99.90;;;6.77;100.00;101423.22;5043601;28;20029;-84
2021/11/24 07:13:29;;;;;;;154.60;40.95;;;6.10;99.90;;;6.77;100.00;101420.44;5026988;28;20033;-82
2021/11/24 07:15:55;;;;;;;135.85;38.40;;;6.10;99.90;;;6.79;100.00;101425.66;5044072;28;20022;-83
2021/11/24 07:18:23;;;;;;;156.02;42.15;;;6.20;99.90;;;6.79;100.00;101417.31;5026219;28;20361;-84
2021/11/24 07:20:51;;;;;;;134.00;37.55;;;6.20;99.90;;;6.79;100.00;101415.38;5026133;28;20045;-81
2021/11/24 07:23:17;;;;;;;138.68;37.53;;;6.10;99.90;;;6.79;100.00;101415.38;5028219;28;20061;-81
2021/11/24 07:25:43;;;;;;;154.05;40.45;;;6.20;99.90;;;6.79;100.00;101415.38;5028596;28;20519;-80
2021/11/24 07:28:09;;;;;;;135.52;35.83;;;6.20;99.90;;;6.82;100.00;101420.31;5027121;28;20505;-83
2021/11/24 07:30:39;;;;;;;124.60;33.40;;;6.20;99.90;;;6.82;100.00;101425.84;5025626;28;20505;-82
2021/11/24 07:33:05;;;;;;;158.18;41.58;;;6.20;99.90;;;6.85;100.00;101419.66;5025862;28;20034;-83
2021/11/24 07:35:32;;;;;;;160.38;40.92;;;6.20;99.90;;;6.84;100.00;101420.78;5043366;28;20365;-81
2021/11/24 07:37:59;;;;;;;159.35;41.40;;;6.20;99.90;;;6.84;100.00;101418.03;5044338;28;20021;-82
2021/11/24 07:40:25;;;;;;;168.18;42.42;;;6.20;99.90;;;6.85;100.00;101422.44;5026504;28;20022;-81
2021/11/24 07:42:57;;;;;;;138.80;37.72;;;6.20;99.90;;;6.88;100.00;101421.00;5026961;28;20091;-83
2021/11/24 07:45:24;;;;;;;208.70;47.33;;;6.30;99.90;;;6.82;100.00;101422.25;5025971;28;20029;-83
2021/11/24 07:47:52;;;;;;;195.52;45.25;;;6.30;99.90;;;6.86;100.00;101414.94;5025180;28;20120;-80
2021/11/24 07:50:18;;;;;;;157.77;40.33;;;6.30;99.90;;;6.88;100.00;101426.53;5026053;28;20026;-82
2021/11/24 07:52:44;;;;;;;150.15;37.92;;;6.30;99.90;;;6.89;100.00;101417.91;5026033;28;20083;-81
2021/11/24 07:55:10;;;;;;;127.22;35.08;;;6.30;99.90;;;6.95;100.00;101418.59;5048811;23;20047;-76
2021/11/24 07:57:36;;;;;;;147.80;38.95;;;6.30;99.90;;;7.00;100.00;101424.00;5051056;28;20037;-75
2021/11/24 08:00:05;;;;;;;137.85;37.75;;;6.30;99.90;;;7.02;100.00;101415.38;5053542;28;20025;-79
2021/11/24 08:02:31;;;;;;;160.48;41.25;;;6.30;99.90;;;7.04;100.00;101416.69;5052047;28;20028;-76
2021/11/24 08:04:58;;;;;;;148.73;40.95;;;6.40;99.90;;;7.07;100.00;101409.69;5053752;28;20499;-75
2021/11/24 08:07:24;;;;;;;143.20;41.05;;;6.40;99.90;;;7.11;100.00;101417.09;5052922;28;20613;-76
2021/11/24 08:09:53;;;;;;;124.05;32.50;;;6.40;99.90;;;7.17;100.00;101409.44;5053083;28;20048;-75
2021/11/24 08:12:19;;;;;;;146.05;37.95;;;6.50;99.90;;;7.24;100.00;101407.84;5052538;28;20115;-75
2021/11/24 08:14:44;;;;;;;128.90;34.53;;;6.50;99.90;;;7.32;100.00;101407.06;5034973;28;20124;-76
2021/11/24 08:17:10;;;;;;;123.22;32.40;;;6.50;99.90;;;7.29;100.00;101396.59;5054186;28;20060;-79
2021/11/24 08:19:36;;;;;;;145.43;41.03;;;6.60;99.90;;;7.29;100.00;101410.50;5054108;28;20086;-76
2021/11/24 08:22:02;;;;;;;128.10;39.58;;;6.60;99.90;;;7.25;100.00;101403.13;5052745;28;20455;-76
2021/11/24 08:24:28;;;;;;;122.63;33.85;;;6.60;99.90;;;7.27;100.00;101398.06;5055583;28;20037;-77
2021/11/24 08:26:54;;;;;;;125.85;35.63;;;6.60;99.90;;;7.40;100.00;101392.44;5056936;28;20051;-78
2021/11/24 08:29:20;;;;;;;110.80;35.45;;;6.60;99.90;;;7.45;100.00;101390.66;5053362;28;20464;-77
2021/11/24 08:31:49;;;;;;;125.95;39.17;;;6.60;99.90;;;7.49;100.00;101381.34;5053992;28;20024;-77
2021/11/24 08:34:15;;;;;;;113.55;34.83;;;6.70;99.90;;;7.53;100.00;101376.78;5052842;28;20084;-76
2021/11/24 08:36:41;;;;;;;91.40;30.13;;;6.70;99.90;;;7.54;100.00;101372.88;5053045;28;20028;-77
2021/11/24 08:39:08;;;;;;;78.72;26.70;;;6.70;99.90;;;7.46;100.00;101376.41;5052726;28;20415;-75
2021/11/24 08:41:35;;;;;;;78.28;26.52;;;6.70;99.90;;;7.51;100.00;101378.25;5051838;28;20388;-77
2021/11/24 08:44:01;;;;;;;76.10;26.17;;;6.70;99.90;;;7.53;100.00;101371.22;5052895;28;20397;-77
2021/11/24 08:46:27;;;;;;;83.70;27.35;;;6.70;99.90;;;7.55;100.00;101370.88;5052664;28;20059;-77
2021/11/24 08:48:53;;;;;;;85.20;28.30;;;6.70;99.90;;;7.50;100.00;101366.31;5052602;28;20021;-76
2021/11/24 08:51:19;;;;;;;82.18;27.70;;;6.80;99.90;;;7.60;100.00;101370.75;5052337;28;20407;-76
2021/11/24 08:53:46;;;;;;;82.68;28.73;;;6.80;99.90;;;7.50;100.00;101374.66;5052672;28;20033;-77
2021/11/24 08:56:12;;;;;;;84.50;26.92;;;6.80;99.90;;;7.51;100.00;101372.69;5052586;28;20044;-76
2021/11/24 08:58:41;;;;;;;82.22;26.83;;;6.80;99.90;;;7.61;100.00;101366.84;5052317;28;20057;-78
2021/11/24 09:01:10;;;;;;;74.80;25.77;;;6.80;99.90;;;7.63;100.00;101365.38;5034215;28;20033;-77
2021/11/24 09:03:42;;;;;;;61.22;23.42;;;6.80;99.90;;;7.65;100.00;101360.31;5052039;28;20494;-77
2021/11/24 09:06:08;;;;;;;63.70;24.67;;;6.90;99.90;;;7.69;100.00;101363.28;5052280;28;20025;-77
2021/11/24 09:08:35;;;;;;;59.40;23.98;;;6.90;99.90;;;7.76;100.00;101358.91;5034444;28;20074;-77
2021/11/24 09:11:02;;;;;;;65.70;22.58;;;7.00;99.90;;;7.86;100.00;101353.03;5052021;28;20111;-77
2021/11/24 09:13:28;;;;;;;59.70;24.00;;;7.00;99.90;;;7.80;100.00;101353.50;5052238;28;20205;-77
2021/11/24 09:15:55;;;;;;;58.22;22.65;;;7.00;99.90;;;7.77;100.00;101351.38;5052762;28;20048;-78
2021/11/24 09:18:33;;;;;;;62.15;23.45;;;7.10;99.90;;;7.95;100.00;101341.94;5035857;28;20035;-78
2021/11/24 09:20:59;;;;;;;58.92;22.88;;;7.20;99.90;;;7.97;100.00;101340.44;5052106;28;20072;-77
2021/11/24 09:23:31;;;;;;;61.58;24.05;;;7.20;99.90;;;7.97;100.00;101343.22;5052157;28;20033;-76
2021/11/24 09:26:03;;;;;;;52.63;21.17;;;7.30;99.90;;;8.15;100.00;101338.53;5050398;28;20033;-77
2021/11/24 09:28:34;;;;;;;54.35;21.10;;;7.30;99.90;;;8.25;100.00;101340.97;5051604;28;20086;-76
2021/11/24 09:31:03;;;;;;;45.95;20.08;;;7.40;99.90;;;8.36;100.00;101341.53;5051652;28;20112;-77
2021/11/24 09:33:29;;;;;;;48.03;20.63;;;7.50;99.90;;;8.44;100.00;101335.94;5051645;28;20029;-77
2021/11/24 09:35:56;;;;;;;54.83;23.25;;;7.60;99.90;;;8.32;100.00;101334.97;5033877;28;20096;-77
2021/11/24 09:38:23;;;;;;;53.22;22.35;;;7.60;99.90;;;8.34;100.00;101330.72;5051980;28;20053;-77
2021/11/24 09:40:54;;;;;;;57.47;24.75;;;7.60;99.90;;;8.36;100.00;101322.03;5051813;28;20706;-77
2021/11/24 09:43:24;;;;;;;49.00;21.70;;;7.60;99.90;;;8.39;100.00;101338.09;5051644;28;20039;-76
2021/11/24 09:45:51;;;;;;;49.35;20.40;;;7.70;99.90;;;8.57;100.00;101333.34;5051576;28;20025;-77
2021/11/24 09:48:19;;;;;;;50.42;20.80;;;7.80;99.90;;;8.71;100.00;101320.88;5039085;28;20120;-78
2021/11/24 09:50:49;;;;;;;52.38;22.48;;;7.90;99.90;;;8.82;100.00;101324.16;5064673;28;20025;-78
2021/11/24 09:53:19;;;;;;;48.15;21.30;;;8.00;99.90;;;8.94;100.00;101315.94;5062841;28;20029;-76
2021/11/24 09:55:53;;;;;;;48.67;20.45;;;8.10;99.90;;;9.01;100.00;101321.81;5055114;28;20025;-75
2021/11/24 09:58:19;;;;;;;48.72;21.63;;;8.20;99.90;;;8.90;100.00;101303.78;5051723;28;20036;-77
2021/11/24 10:00:48;;;;;;;38.75;20.13;;;8.20;99.90;;;8.93;100.00;101301.16;5051819;28;20029;-76
2021/11/24 10:03:15;;;;;;;45.67;20.58;;;8.20;99.90;;;9.02;100.00;101301.16;5051541;28;20522;-76